createdAt,value
2022-07-28T00:01:16.487Z,83.99171041463535
2022-07-28T00:04:16.817Z,84.97639699813995
2022-07-28T00:07:16.342Z,84.37642021280627
2022-07-28T00:11:16.582Z,83.5670655895359
2022-07-28T00:14:17.040Z,82.56656091650107
2022-07-28T00:17:16.755Z,82.36731752637193
2022-07-28T00:21:16.926Z,82.13841292944369
2022-07-28T00:24:17.531Z,82.98999149008537
2022-07-28T00:27:19.176Z,83.2805775054307
2022-07-28T00:31:16.499Z,83.80715425188106
2022-07-28T00:34:17.054Z,84.98082759487629
2022-07-28T00:37:16.511Z,84.74052445475462
2022-07-28T00:41:16.913Z,84.76539461779915
2022-07-28T00:44:17.212Z,84.20557739137725
2022-07-28T00:47:16.460Z,84.87979890622191
2022-07-28T00:51:18.661Z,83.86099194176754
2022-07-28T00:54:16.604Z,84.29684051548362
2022-07-28T00:57:16.108Z,84.97092151035956
2022-07-28T01:01:19.011Z,85.21417330927086
2022-07-28T01:04:18.723Z,85.74747473907472
2022-07-28T01:07:29.960Z,85.45329534659223
2022-07-28T01:11:25.265Z,85.17709078120753
2022-07-28T01:14:28.517Z,85.18740770749426
2022-07-28T01:17:28.578Z,85.33630632990264
2022-07-28T01:21:23.187Z,86.50629746029708
2022-07-28T01:24:25.481Z,86.72586160485314
2022-07-28T01:27:29.096Z,85.98326580865539
2022-07-28T01:31:22.214Z,86.94978768867615
2022-07-28T01:34:22.706Z,87.54056334462675
2022-07-28T01:37:19.601Z,88.4894542964761
2022-07-28T01:41:20.572Z,87.51606038244944
2022-07-28T01:44:20.585Z,87.41783645041559
2022-07-28T01:47:18.579Z,87.51317171339684
2022-07-28T01:51:17.607Z,87.34677021432276
2022-07-28T01:54:17.566Z,88.11010288715327
2022-07-28T01:57:17.370Z,88.54480156111542
2022-07-28T02:01:19.531Z,87.82597331400589
2022-07-28T02:04:19.108Z,88.97018343354722
2022-07-28T02:07:18.556Z,89.30588969641487
2022-07-28T02:11:51.801Z,88.48700425402154
2022-07-28T02:14:20.704Z,89.28446236245038
2022-07-28T02:17:20.644Z,89.259582625609
2022-07-28T02:21:17.382Z,90.10883142017803
2022-07-28T02:24:20.146Z,91.57991872838167
2022-07-28T02:27:26.358Z,91.3422870231236
2022-07-28T02:31:22.579Z,90.62957126685487
2022-07-28T02:34:26.321Z,90.72657207047149
2022-07-28T02:37:18.807Z,90.09593854866463
2022-07-28T02:41:22.560Z,88.45373433616787
2022-07-28T02:44:24.945Z,89.29144139611788
2022-07-28T02:47:22.294Z,88.97415774809258
2022-07-28T02:51:17.868Z,88.58930733835915
2022-07-28T02:54:19.096Z,88.93396889117989
2022-07-28T02:57:17.723Z,90.13276601102085
2022-07-28T03:01:18.002Z,89.5422644225427
2022-07-28T03:04:57.750Z,90.45258781460005
2022-07-28T03:07:17.769Z,89.82168626943606
2022-07-28T03:11:16.451Z,90.35476235585382
2022-07-28T03:14:16.873Z,91.30530820203316
2022-07-28T03:17:17.157Z,91.82886929024284
2022-07-28T03:21:16.286Z,91.34107095030868
2022-07-28T03:24:18.889Z,91.3184513257406
2022-07-28T03:27:23.850Z,92.16084987946692
2022-07-28T03:31:17.977Z,92.1354412064081
2022-07-28T03:34:16.805Z,91.72564903785357
2022-07-28T03:37:22.832Z,91.59104375447909
2022-07-28T03:41:19.051Z,90.55503445635419
2022-07-28T03:44:27.834Z,90.26685540881215
2022-07-28T03:47:21.300Z,90.04957336039492
2022-07-28T03:51:16.299Z,89.24766295448143
2022-07-28T03:54:16.968Z,89.69446713864795
2022-07-28T03:57:16.470Z,90.58693170691443
2022-07-28T04:01:16.786Z,90.53888054546753
2022-07-28T04:04:16.913Z,90.32305449894324
2022-07-28T04:07:16.518Z,90.87585328830619
2022-07-28T04:11:15.619Z,90.44750834984737
2022-07-28T04:14:18.131Z,90.61952103717886
2022-07-28T04:17:15.996Z,91.62705442359149
2022-07-28T04:21:17.866Z,90.50724388285208
2022-07-28T04:24:18.477Z,90.50060894142513
2022-07-28T04:27:18.338Z,90.73495615466322
2022-07-28T04:31:15.915Z,91.40044922522314
2022-07-28T04:34:17.852Z,92.16642301326611
2022-07-28T04:37:16.344Z,91.22424322215451
2022-07-28T04:41:16.263Z,91.57927937349488
2022-07-28T04:44:17.907Z,92.8099686227632
2022-07-28T04:47:17.287Z,94.0699088095565
2022-07-28T04:51:16.711Z,93.94251019642994
2022-07-28T04:54:19.209Z,93.3632322884885
2022-07-28T04:57:16.955Z,93.0181256915916
2022-07-28T05:01:18.497Z,92.49553165351736
2022-07-28T05:04:17.884Z,93.36478458381346
2022-07-28T05:07:17.566Z,95.17733816793796
2022-07-28T05:11:17.198Z,94.21773295595483
2022-07-28T05:14:16.333Z,94.97182919977962
2022-07-28T05:17:15.933Z,94.16404770014552
2022-07-28T05:21:16.690Z,93.91428842577787
2022-07-28T05:24:17.545Z,93.99524326422475
2022-07-28T05:27:16.853Z,94.60825323125572
2022-07-28T05:31:16.502Z,94.53118312095482
2022-07-28T05:34:17.071Z,94.22630754337916
2022-07-28T05:37:16.688Z,94.42194182044663
2022-07-28T05:41:15.544Z,93.79204454123372
2022-07-28T05:44:16.230Z,93.5066084686103
2022-07-28T05:47:16.016Z,94.4795958383058
2022-07-28T05:51:16.221Z,95.47442041398433
2022-07-28T05:54:16.386Z,94.98815132359974
2022-07-28T05:57:15.954Z,94.29797026578602
2022-07-28T06:01:23.572Z,96.26630467404966
2022-07-28T06:04:27.702Z,96.99761666316198
2022-07-28T06:07:17.948Z,98.62704643141298
2022-07-28T06:11:21.661Z,100
2022-07-28T06:14:16.180Z,99.73239719395409
2022-07-28T06:17:16.251Z,96.06934623451416
2022-07-28T06:21:16.533Z,90.46352134254795
2022-07-28T06:24:16.826Z,91.04391127411225
2022-07-28T06:27:16.579Z,90.96926240382145
2022-07-28T06:31:16.058Z,85.33391633059504
2022-07-28T06:34:16.976Z,85.05360783827282
2022-07-28T06:37:17.428Z,88.58720193590497
2022-07-28T06:41:15.982Z,87.05023101462494
2022-07-28T06:44:16.455Z,82.05054564127346
2022-07-28T06:47:16.171Z,77.9870100301508
2022-07-28T06:51:19.432Z,76.2508577289156
2022-07-28T06:54:17.953Z,78.21874022175189
2022-07-28T06:57:17.377Z,78.25011586404653
2022-07-28T07:01:16.064Z,74.52634924599347
2022-07-28T07:04:16.894Z,74.38274387549252
2022-07-28T07:07:17.279Z,75.58449153011887
2022-07-28T07:11:15.983Z,74.41743468747758
2022-07-28T07:14:16.822Z,74.47522785033274
2022-07-28T07:17:16.458Z,74.9936628552672
2022-07-28T07:21:16.036Z,77.53892913266866
2022-07-28T07:24:17.243Z,81.03177437675365
2022-07-28T07:27:16.570Z,85.60327566056368
2022-07-28T07:31:17.175Z,91.21215185885394
2022-07-28T07:34:17.924Z,94.35751876118766
2022-07-28T07:37:17.597Z,95.1860559555319
2022-07-28T07:41:16.516Z,94.15466202262628
2022-07-28T07:44:17.031Z,94.56348027420401
2022-07-28T07:47:16.764Z,91.74188606574663
2022-07-28T07:51:16.467Z,88.00416029857801
2022-07-28T07:54:17.224Z,86.96750902023356
2022-07-28T07:57:16.797Z,85.55688076019221
2022-07-28T08:01:16.149Z,84.95727964464854
2022-07-28T08:04:16.800Z,84.03480803594798
2022-07-28T08:07:16.154Z,85.76773433108706
2022-07-28T08:11:16.696Z,84.94120086971618
2022-07-28T08:14:17.813Z,86.13548940655991
2022-07-28T08:17:16.420Z,82.9864836312558
2022-07-28T08:21:17.934Z,84.47675942037039
2022-07-28T08:24:27.378Z,85.56072053478054
2022-07-28T08:27:16.825Z,86.1945032271538
2022-07-28T08:31:17.880Z,83.59946527428552
2022-07-28T08:34:27.866Z,82.40882002718621
2022-07-28T08:37:24.083Z,81.4597704653507
2022-07-28T08:41:21.837Z,79.79587805507627
2022-07-28T08:44:23.901Z,79.37233273670235
2022-07-28T08:47:18.661Z,77.7736218667829
2022-07-28T08:51:19.845Z,74.15286415697413
2022-07-28T08:54:21.649Z,74.75171831546027
2022-07-28T08:57:19.754Z,71.48974717083533
2022-07-28T09:01:22.638Z,70.72830094703673
2022-07-28T09:04:18.571Z,71.8849837775498
2022-07-28T09:07:17.215Z,70.25664483930802
2022-07-28T09:11:18.074Z,70.39987112298024
2022-07-28T09:14:18.472Z,69.82653563777976
2022-07-28T09:17:18.453Z,70.546159109167
2022-07-28T09:21:16.846Z,70.03030112632592
2022-07-28T09:24:33.839Z,68.6306081306846
2022-07-28T09:27:17.119Z,69.93461931421074
2022-07-28T09:31:17.269Z,68.97912088820334
2022-07-28T09:34:18.438Z,67.6779810544233
2022-07-28T09:37:19.330Z,66.7781798432562
2022-07-28T09:51:25.369Z,63.3710614612701
2022-07-28T09:54:18.296Z,62.77331915518488
2022-07-28T09:57:26.379Z,62.70416221607099
2022-07-28T10:01:16.210Z,59.70208144321011
2022-07-28T10:04:27.570Z,61.784902107299736
2022-07-28T10:07:17.376Z,60.42290626797091
2022-07-28T10:11:17.998Z,60.06263351868037
2022-07-28T10:21:41.654Z,59.48949221068213
2022-07-28T10:31:27.574Z,56.33971293504957
2022-07-28T10:34:33.313Z,57.42099123520097
2022-07-28T10:37:24.736Z,54.285460903623814
2022-07-28T10:41:25.792Z,54.23803069363621
2022-07-28T10:44:19.917Z,55.02614410979177
2022-07-28T10:47:19.550Z,54.05243743434639
2022-07-28T10:51:16.840Z,54.09990494021304
2022-07-28T10:54:25.160Z,54.72612576476444
2022-07-28T10:57:17.168Z,52.84909318620935
2022-07-28T11:01:48.996Z,49.478909996603925
2022-07-28T11:11:42.212Z,48.107528746965315
2022-07-28T11:14:31.038Z,50.07901408310947
2022-07-28T11:41:27.197Z,49.233662397641574
2022-07-28T11:44:24.131Z,46.11420611499569
2022-07-28T11:47:18.683Z,44.831755108647165
2022-07-28T11:51:18.016Z,43.2631475115303
2022-07-28T11:54:17.111Z,43.00168387720415
2022-07-28T11:57:17.463Z,44.88699689645279
2022-07-28T12:01:19.176Z,42.05576817894524
2022-07-28T12:04:17.368Z,41.38897193378718
2022-07-28T12:07:16.967Z,45.44174853225761
2022-07-28T12:51:34.672Z,38.14753945120645
2022-07-28T13:01:16.496Z,33.89645021224629
2022-07-28T13:11:41.903Z,33.64457091190529
2022-07-28T13:21:35.984Z,32.36804852885826
2022-07-28T13:31:16.604Z,31.856606110265567
2022-07-28T13:41:17.255Z,31.873968861123256
2022-07-28T13:51:17.040Z,30.71456717695267
2022-07-28T14:01:16.214Z,31.785391495532046
2022-07-28T14:11:16.116Z,31.068215688721104
2022-07-28T14:21:17.258Z,31.32802622023663
2022-07-28T14:31:16.591Z,31.877232189550295
2022-07-28T14:41:17.414Z,31.497265980465453
2022-07-28T14:51:16.286Z,31.585977573809327
2022-07-28T15:01:15.932Z,31.91167137187687
2022-07-28T15:11:16.672Z,31.664106227027805
2022-07-28T15:21:17.286Z,31.420721775096588
2022-07-28T15:41:16.793Z,31.25373260280024
2022-07-28T15:51:16.847Z,31.199181292954837
2022-07-28T16:01:37.433Z,31.66328884402873
2022-07-28T16:11:16.420Z,32.23169043485405
2022-07-28T16:31:17.046Z,31.977355607230837
2022-07-28T16:41:16.380Z,32.32528691951722
2022-07-28T16:51:16.730Z,32.711259118655484
2022-07-28T17:21:16.804Z,33.52958409398721
2022-07-28T17:31:16.951Z,35.05727237989539
2022-07-28T17:41:16.063Z,35.60098294944666
2022-07-28T17:44:16.730Z,35.67610861378948
2022-07-28T17:47:16.625Z,35.842265803207226
2022-07-28T17:51:16.258Z,36.581558193893784
2022-07-28T17:54:16.948Z,36.89149368604034
2022-07-28T17:57:18.337Z,37.286569305844665
2022-07-28T18:01:17.332Z,37.72655861364312
2022-07-28T18:04:16.851Z,37.31842604387548
2022-07-28T18:07:16.509Z,38.21571802144974
2022-07-28T18:11:16.879Z,38.703364832566365
2022-07-28T18:14:17.935Z,38.62018374600224
2022-07-28T18:17:16.875Z,38.560396395914225
2022-07-28T18:21:15.905Z,38.733423153899864
2022-07-28T18:24:16.888Z,39.13168015556316
2022-07-28T18:27:16.253Z,39.21547899961205
2022-07-28T18:31:17.081Z,39.60638186784148
2022-07-28T18:34:17.718Z,39.979378109792826
2022-07-28T18:37:16.878Z,40.49986242288605
2022-07-28T18:41:16.724Z,41.54558473061311
2022-07-28T18:44:17.574Z,41.29149609291233
2022-07-28T18:47:16.870Z,41.48049341749526
2022-07-28T19:01:15.849Z,43.42679656050674
2022-07-28T19:04:17.194Z,44.46297716938691
2022-07-28T19:07:16.401Z,45.12753535347131
2022-07-28T19:11:19.669Z,45.838156288067395
2022-07-28T19:21:37.533Z,46.28466703701028
2022-07-28T19:24:37.205Z,46.64157809222073
2022-07-28T19:27:37.591Z,47.16253608815838
2022-07-28T19:31:16.891Z,47.706349327398755
2022-07-28T19:34:17.421Z,48.02833444001925
2022-07-28T19:37:17.339Z,48.18530132117825
2022-07-28T20:11:16.622Z,50.62062460344278
2022-07-28T20:14:17.476Z,50.85923154244281
2022-07-28T20:17:36.874Z,51.185034349024804
2022-07-28T20:31:17.233Z,51.68150075619142
2022-07-28T20:34:16.595Z,52.250145000228414
2022-07-28T20:37:18.870Z,52.92695028639721
2022-07-28T20:41:16.964Z,53.26085369869615
2022-07-28T20:44:28.697Z,54.107937841552115
2022-07-28T20:47:17.820Z,54.53241362464579
2022-07-28T20:51:21.712Z,54.52321020404568
2022-07-28T20:54:17.158Z,54.52268894043145
2022-07-28T20:57:16.876Z,54.75278262548178
2022-07-28T21:01:16.384Z,54.65090372204439
2022-07-28T21:04:17.247Z,55.21356210610083
2022-07-28T21:07:18.116Z,55.56619755535475
2022-07-28T21:11:18.355Z,55.555896238810575
2022-07-28T21:14:18.214Z,55.01657087811575
2022-07-28T21:17:16.726Z,55.624304435925055
2022-07-28T21:21:16.708Z,56.03334402241878
2022-07-28T21:24:17.471Z,57.002343888022764
2022-07-28T21:27:17.502Z,57.19356419169254
2022-07-28T21:31:17.773Z,57.74219786864862
2022-07-28T21:34:17.991Z,58.05408892085136
2022-07-28T21:37:16.902Z,58.41073703359972
2022-07-28T21:41:16.443Z,58.71667496141677
2022-07-28T21:44:16.665Z,58.92858990924673
2022-07-28T21:47:16.510Z,59.14012534936582
2022-07-28T21:51:21.641Z,59.53637208665294
2022-07-28T22:21:17.935Z,62.10616719168882
2022-07-28T22:24:16.958Z,62.74921988088981
2022-07-28T22:27:16.468Z,62.94763578575718
2022-07-28T22:51:16.050Z,63.90652918448679
2022-07-28T22:54:17.428Z,64.04463244781138
2022-07-28T22:57:16.403Z,64.26775717217227
2022-07-28T23:01:15.899Z,64.67683396609421
2022-07-28T23:04:16.334Z,65.14088620578
2022-07-28T23:07:20.950Z,65.60997718770717
2022-07-28T23:11:16.576Z,66.1643932767072
2022-07-28T23:14:17.119Z,67.06270166248174
2022-07-28T23:17:16.618Z,66.78812167959269
2022-07-28T23:21:15.920Z,65.00751162471657
2022-07-28T23:24:16.962Z,65.25622608037791
2022-07-28T23:31:15.827Z,66.74480996360032
2022-07-28T23:34:16.565Z,67.23514707318225
2022-07-28T23:37:16.652Z,67.38194221661963
2022-07-28T23:41:16.040Z,67.79495758247154
2022-07-28T23:44:16.771Z,67.9946586634365
2022-07-28T23:47:16.435Z,68.6050767373962
2022-07-28T23:51:16.813Z,68.3202725685557
2022-07-28T23:54:16.954Z,68.42647513817934
2022-07-28T23:57:16.423Z,69.01190838665339
